Greenville Downtown Airport
KGMU : rendu visible

Aérodrome :











RETROUVEZ-NOUS SUR...

 
LOGIN :

S'inscrire | Disclaimer

   EN    FR    IT 

 









Légende :    VFR   VFR Marginal   IFR   IFR Intensif   IFR Très Intensif
Visi : 
Plafond : 
>= 8 km
>= 3000ft
5 à 8 km
1000 à 3000 ft
1500m à 5 km
500 à 1000 ft
800 à 1500m
200 à 500 ft
< 800m
< 200 ft
Symboles :   Orages  Brouillard  Fortes neiges  Fortes précipitations  Vent > 20 kt






- Altitude de l'aérodrome : 1048 ft


KGMU - Greenville Downtown

DERNIER METAR :
  • 250353Z AUTO 00000KT 10SM OVC042 10/02 A3036 RMK AO2 SLP281 T01000017

METARs EXPIRÉS :
  • 250253Z AUTO 00000KT 10SM OVC042 09/01 A3035 RMK AO2 SLP278 T00890011 53003
  • 250153Z 00000KT 10SM BKN041 09/01 A3035 RMK AO2 SLP278 T00890006

TAF KGMU
Valide du 25 à 00h jusqu'au 26 à 00h UTC


242329Z 2500/2524 09003KT P6SM BKN250
FM250400 02003KT P6SM BKN045 OVC250
FM251000 02003KT P6SM SCT018 OVC023
FM251600 06003KT P6SM VCSH OVC016
PROB30 2518/2524 4SM -SHRA BR OVC008
FIR KZTL / Amérique du Nord



MET'MAP, la Météo Aéronautique d'un coup d'oeil ! - Copyright ORBIFLY Décembre 2007 - Disclaimer

ORBIFLY MET'MAP TEAM :

Programmation & Développement : Alexandra Zaïnal
Sur une idée originale de : Baudouin d'Aumeries
Assistance à la programmation : Marc-Olivier Méhu
Soutien technique & logistique : Manuel Goepfert

Contact : metmap@orbifly.com




SOURCES & CREDITS :

   NOAA       Earth
Advisory